createdAt,value
2022-09-21T00:01:27.250Z,0.30
2022-09-21T00:04:04.447Z,1.35
2022-09-21T00:06:33.285Z,0.20
2022-09-21T00:09:00.250Z,1.15
2022-09-21T00:11:30.288Z,0.40
2022-09-21T00:14:04.575Z,0.20
2022-09-21T00:18:59.951Z,0.20
2022-09-21T00:21:28.288Z,1.33
2022-09-21T00:23:55.564Z,0.22
2022-09-21T00:26:24.755Z,0.25
2022-09-21T00:28:57.574Z,0.88
2022-09-21T00:31:24.790Z,0.20
2022-09-21T00:33:52.275Z,0.35
2022-09-21T00:36:21.527Z,0.40
2022-09-21T00:38:57.077Z,0.30
2022-09-21T00:41:25.867Z,1.05
2022-09-21T00:44:44.070Z,0.20
2022-09-21T00:47:15.033Z,0.20
2022-09-21T00:49:45.673Z,0.30
2022-09-21T00:52:16.703Z,0.20
2022-09-21T00:54:57.591Z,0.38
2022-09-21T00:57:27.636Z,0.50
2022-09-21T00:59:57.269Z,0.30
2022-09-21T01:02:24.634Z,0.20
2022-09-21T01:04:56.003Z,0.20
2022-09-21T01:07:28.449Z,0.45
2022-09-21T01:09:59.363Z,0.45
2022-09-21T01:12:49.734Z,0.47
2022-09-21T01:15:25.567Z,0.80
2022-09-21T01:18:06.117Z,3.42
2022-09-21T01:20:54.109Z,0.20
2022-09-21T01:23:33.647Z,0.20
2022-09-21T01:26:12.121Z,0.43
2022-09-21T01:29:16.190Z,0.50
2022-09-21T01:31:55.371Z,0.20
2022-09-21T01:34:33.436Z,0.63
2022-09-21T01:37:05.659Z,0.20
2022-09-21T01:39:35.137Z,0.28
2022-09-21T01:42:04.617Z,0.20
2022-09-21T01:44:33.514Z,0.68
2022-09-21T01:47:07.744Z,1.40
2022-09-21T01:49:38.893Z,0.20
2022-09-21T01:52:16.971Z,0.35
2022-09-21T01:54:49.269Z,0.47
2022-09-21T01:57:21.917Z,0.30
2022-09-21T01:59:58.592Z,0.40
2022-09-21T02:02:53.944Z,0.20
2022-09-21T02:05:23.628Z,0.30
2022-09-21T02:07:52.419Z,0.75
2022-09-21T02:10:26.960Z,0.47
2022-09-21T02:12:58.616Z,0.40
2022-09-21T02:15:32.533Z,0.20
2022-09-21T02:18:14.321Z,0.30
2022-09-21T02:20:57.196Z,0.28
2022-09-21T02:23:32.957Z,0.52
2022-09-21T02:26:14.645Z,0.20
2022-09-21T02:28:56.208Z,0.77
2022-09-21T02:31:33.686Z,0.30
2022-09-21T02:34:18.538Z,0.30
2022-09-21T02:39:24.989Z,0.30
2022-09-21T02:42:04.692Z,0.30
2022-09-21T02:44:39.042Z,0.30
2022-09-21T02:47:18.614Z,1.55
2022-09-21T02:49:53.491Z,0.30
2022-09-21T02:52:21.739Z,0.20
2022-09-21T02:54:52.170Z,0.35
2022-09-21T02:57:21.954Z,0.22
2022-09-21T02:59:50.238Z,0.95
2022-09-21T03:02:17.432Z,0.30
2022-09-21T03:04:50.127Z,0.30
2022-09-21T03:07:17.913Z,0.20
2022-09-21T03:09:45.170Z,0.20
2022-09-21T03:12:12.090Z,0.20
2022-09-21T03:14:39.178Z,0.50
2022-09-21T03:17:06.239Z,0.30
2022-09-21T03:19:33.096Z,0.30
2022-09-21T03:22:00.255Z,0.30
2022-09-21T03:24:45.500Z,0.25
2022-09-21T03:27:20.282Z,0.30
2022-09-21T03:29:47.664Z,0.20
2022-09-21T03:32:14.554Z,0.35
2022-09-21T03:34:41.935Z,3.15
2022-09-21T03:37:10.407Z,2.97
2022-09-21T03:39:37.302Z,2.10
2022-09-21T03:42:04.663Z,4.93
2022-09-21T03:44:31.499Z,4.28
2022-09-21T03:46:58.353Z,4.32
2022-09-21T03:49:25.486Z,3.97
2022-09-21T03:51:52.518Z,2.20
2022-09-21T03:54:19.391Z,3.78
2022-09-21T03:56:46.269Z,3.75
2022-09-21T03:59:14.378Z,3.80
2022-09-21T04:01:42.371Z,3.22
2022-09-21T04:04:10.391Z,3.70
2022-09-21T04:06:37.328Z,4.28
2022-09-21T04:09:04.235Z,2.95
2022-09-21T04:11:33.412Z,4.22
2022-09-21T04:14:00.387Z,4.82
2022-09-21T04:16:28.419Z,4.43
2022-09-21T04:18:55.532Z,3.55
2022-09-21T04:21:22.968Z,3.03
2022-09-21T04:23:50.359Z,3.20
2022-09-21T04:26:26.941Z,4.38
2022-09-21T04:28:55.488Z,4.25
2022-09-21T04:31:23.843Z,11.18
2022-09-21T04:33:52.278Z,4.15
2022-09-21T04:36:20.030Z,3.40
2022-09-21T04:38:46.944Z,3.78
2022-09-21T04:41:14.234Z,5.97
2022-09-21T04:43:45.783Z,3.08
2022-09-21T04:46:15.630Z,4.32
2022-09-21T04:48:42.741Z,2.45
2022-09-21T04:51:11.536Z,4.57
2022-09-21T04:53:40.282Z,4.95
2022-09-21T04:56:08.172Z,8.90
2022-09-21T04:58:35.238Z,2.53
2022-09-21T05:01:04.386Z,3.60
2022-09-21T05:03:31.452Z,4.72
2022-09-21T05:05:59.224Z,2.97
2022-09-21T05:08:46.085Z,3.53
2022-09-21T05:11:21.202Z,5.43
2022-09-21T05:13:48.475Z,4.35
2022-09-21T05:16:16.746Z,4.47
2022-09-21T05:18:44.208Z,3.83
2022-09-21T05:21:15.296Z,4.07
2022-09-21T05:23:42.402Z,5.75
2022-09-21T05:26:09.268Z,4.22
2022-09-21T05:28:39.819Z,4.18
2022-09-21T05:31:31.270Z,4.63
2022-09-21T05:34:35.713Z,3.85
2022-09-21T05:37:18.438Z,2.90
2022-09-21T05:39:45.871Z,3.08
2022-09-21T05:42:13.114Z,4.07
2022-09-21T05:44:40.282Z,3.15
2022-09-21T05:47:37.228Z,3.92
2022-09-21T05:50:29.328Z,4.88
2022-09-21T05:53:23.926Z,3.58
2022-09-21T05:55:50.732Z,3.13
2022-09-21T05:58:31.248Z,4.63
2022-09-21T06:01:28.400Z,4.78
2022-09-21T06:03:56.895Z,6.05
2022-09-21T06:06:23.810Z,4.15
2022-09-21T06:12:32.146Z,4.75
2022-09-21T06:14:58.973Z,5.85
2022-09-21T06:17:27.518Z,2.00
2022-09-21T06:19:54.540Z,3.65
2022-09-21T06:22:21.520Z,4.07
2022-09-21T06:24:48.358Z,3.00
2022-09-21T06:27:15.170Z,2.88
2022-09-21T06:29:42.050Z,3.80
2022-09-21T06:32:09.003Z,3.60
2022-09-21T06:34:35.876Z,2.40
2022-09-21T06:37:03.244Z,3.17
2022-09-21T06:39:30.217Z,9.00
2022-09-21T06:41:57.576Z,2.15
2022-09-21T06:44:24.424Z,2.03
2022-09-21T06:46:51.351Z,3.85
2022-09-21T06:49:18.271Z,2.15
2022-09-21T06:51:45.101Z,4.00
2022-09-21T06:54:11.938Z,3.53
2022-09-21T07:00:32.577Z,3.25
2022-09-21T07:02:59.736Z,5.43
2022-09-21T07:05:26.741Z,4.13
2022-09-21T07:07:59.772Z,5.55
2022-09-21T07:10:27.217Z,3.15
2022-09-21T07:16:42.223Z,4.70
2022-09-21T07:19:11.388Z,4.05
2022-09-21T07:21:38.962Z,7.95
2022-09-21T07:27:53.737Z,3.30
2022-09-21T07:30:20.629Z,4.75
2022-09-21T07:32:47.568Z,3.53
2022-09-21T07:35:14.427Z,3.65
2022-09-21T07:37:41.277Z,4.43
2022-09-21T07:40:08.671Z,9.80
2022-09-21T07:42:35.541Z,3.47
2022-09-21T07:45:04.776Z,3.25
2022-09-21T07:47:32.094Z,4.57
2022-09-21T07:49:59.119Z,6.47
2022-09-21T07:52:25.985Z,7.75
2022-09-21T07:54:52.822Z,2.20
2022-09-21T07:57:38.083Z,5.15
2022-09-21T08:00:06.017Z,2.92
2022-09-21T08:02:33.106Z,3.45
2022-09-21T08:04:59.980Z,4.13
2022-09-21T08:07:28.433Z,3.83
2022-09-21T08:09:55.260Z,5.90
2022-09-21T08:12:22.152Z,6.05
2022-09-21T08:14:49.282Z,3.45
2022-09-21T08:17:16.151Z,3.50
2022-09-21T08:19:42.991Z,3.38
2022-09-21T08:22:09.888Z,3.08
2022-09-21T08:24:37.749Z,4.60
2022-09-21T08:27:04.931Z,3.17
2022-09-21T08:29:31.750Z,4.65
2022-09-21T08:31:58.757Z,4.65
2022-09-21T08:34:26.465Z,3.70
2022-09-21T08:36:55.793Z,4.32
2022-09-21T08:39:24.057Z,4.85
2022-09-21T08:42:10.922Z,3.95
2022-09-21T08:48:35.848Z,3.50
2022-09-21T08:53:44.959Z,3.05
2022-09-21T08:56:13.729Z,1.63
2022-09-21T08:58:41.748Z,2.10
2022-09-21T09:01:43.531Z,2.72
2022-09-21T09:04:30.265Z,2.85
2022-09-21T09:07:29.199Z,2.67
2022-09-21T09:10:11.972Z,2.60
2022-09-21T09:13:29.080Z,3.05
2022-09-21T09:16:24.980Z,4.10
2022-09-21T09:18:56.613Z,1.85
2022-09-21T09:21:34.282Z,5.18
2022-09-21T09:27:45.684Z,2.70
2022-09-21T09:30:23.725Z,4.10
2022-09-21T09:33:20.472Z,3.55
2022-09-21T09:35:52.835Z,2.10
2022-09-21T09:38:24.659Z,3.95
2022-09-21T09:41:11.573Z,4.65
2022-09-21T09:44:06.397Z,1.75
2022-09-21T09:46:56.727Z,2.40
2022-09-21T09:50:01.923Z,2.42
2022-09-21T09:52:28.909Z,2.47
2022-09-21T09:54:55.768Z,4.43
2022-09-21T09:57:31.446Z,4.32
2022-09-21T10:00:03.841Z,1.10
2022-09-21T10:02:31.491Z,3.65
2022-09-21T10:05:06.464Z,3.25
2022-09-21T10:07:47.404Z,1.92
2022-09-21T10:10:29.416Z,2.78
2022-09-21T10:13:25.395Z,2.30
2022-09-21T10:15:56.183Z,2.13
2022-09-21T10:18:37.865Z,2.72
2022-09-21T10:21:15.749Z,2.22
2022-09-21T10:23:47.820Z,3.80
2022-09-21T10:26:16.338Z,2.50
2022-09-21T10:29:17.986Z,2.35
2022-09-21T10:32:26.952Z,1.98
2022-09-21T10:35:08.624Z,7.18
2022-09-21T10:37:43.370Z,2.08
2022-09-21T10:40:23.616Z,3.15
2022-09-21T10:42:53.910Z,3.78
2022-09-21T10:45:32.384Z,3.47
2022-09-21T10:48:18.795Z,3.35
2022-09-21T10:50:49.607Z,4.25
2022-09-21T10:53:30.410Z,2.70
2022-09-21T10:56:16.379Z,2.97
2022-09-21T10:59:22.625Z,2.30
2022-09-21T11:01:52.013Z,2.13
2022-09-21T11:04:46.185Z,1.70
2022-09-21T11:07:43.235Z,2.43
2022-09-21T11:10:40.854Z,5.43
2022-09-21T11:13:17.962Z,2.20
2022-09-21T11:15:49.636Z,4.88
2022-09-21T11:18:20.502Z,3.63
2022-09-21T11:20:56.697Z,4.20
2022-09-21T11:23:43.830Z,4.78
2022-09-21T11:26:31.045Z,4.28
2022-09-21T11:29:12.349Z,4.07
2022-09-21T11:32:14.339Z,5.75
2022-09-21T11:35:07.659Z,5.72
2022-09-21T11:37:55.901Z,5.97
2022-09-21T11:40:32.349Z,2.67
2022-09-21T11:43:27.066Z,3.00
2022-09-21T11:46:20.264Z,3.85
2022-09-21T11:49:04.972Z,5.15
2022-09-21T11:54:51.618Z,2.45
2022-09-21T11:57:44.753Z,4.45
2022-09-21T12:00:22.227Z,4.25
2022-09-21T12:03:30.179Z,6.10
2022-09-21T12:06:06.324Z,2.50
2022-09-21T12:09:04.152Z,3.22
2022-09-21T12:11:44.521Z,2.15
2022-09-21T12:17:46.335Z,4.72
2022-09-21T12:20:31.285Z,4.65
2022-09-21T12:23:03.253Z,4.78
2022-09-21T12:25:37.528Z,4.05
2022-09-21T12:30:51.448Z,2.25
2022-09-21T12:33:23.042Z,2.65
2022-09-21T12:35:57.005Z,2.72
2022-09-21T12:38:30.388Z,4.82
2022-09-21T12:41:24.033Z,2.93
2022-09-21T12:44:00.809Z,3.05
2022-09-21T12:46:51.881Z,2.45
2022-09-21T12:49:30.451Z,2.60
2022-09-21T12:52:03.395Z,3.38
2022-09-21T12:54:54.414Z,2.95
2022-09-21T12:57:58.790Z,3.05
2022-09-21T13:00:49.401Z,2.38
2022-09-21T13:03:23.663Z,5.13
2022-09-21T13:06:06.827Z,2.80
2022-09-21T13:08:38.188Z,2.63
2022-09-21T13:11:08.067Z,3.42
2022-09-21T13:13:56.390Z,2.35
2022-09-21T13:16:34.937Z,2.97
2022-09-21T13:19:14.078Z,2.45
2022-09-21T13:21:42.236Z,5.13
2022-09-21T13:24:29.175Z,2.33
2022-09-21T13:27:00.641Z,3.22
2022-09-21T13:33:21.388Z,3.75
2022-09-21T13:35:48.273Z,2.80
2022-09-21T13:42:05.131Z,6.00
2022-09-21T13:44:41.843Z,4.05
2022-09-21T13:47:11.462Z,3.47
2022-09-21T13:49:50.936Z,5.80
2022-09-21T13:52:17.778Z,4.45
2022-09-21T13:54:52.656Z,1.90
2022-09-21T13:57:25.319Z,4.63
2022-09-21T14:00:12.553Z,7.55
2022-09-21T14:02:40.303Z,2.45
2022-09-21T14:05:14.730Z,1.73
2022-09-21T14:10:10.162Z,2.50
2022-09-21T14:12:45.861Z,4.28
2022-09-21T14:15:19.504Z,4.70
2022-09-21T14:18:07.963Z,2.97
2022-09-21T14:20:39.536Z,2.75
2022-09-21T14:23:33.249Z,3.53
2022-09-21T14:26:04.858Z,4.25
2022-09-21T14:28:34.969Z,7.07
2022-09-21T14:31:07.270Z,3.67
2022-09-21T14:33:55.812Z,2.35
2022-09-21T14:36:41.502Z,3.00
2022-09-21T14:39:19.185Z,4.90
2022-09-21T14:41:50.134Z,3.30
2022-09-21T14:44:23.440Z,4.35
2022-09-21T14:46:50.256Z,5.32
2022-09-21T14:49:23.364Z,3.47
2022-09-21T14:52:32.566Z,2.97
2022-09-21T14:55:16.079Z,4.53
2022-09-21T14:57:50.398Z,3.53
2022-09-21T15:03:19.189Z,2.25
2022-09-21T15:06:00.396Z,2.28
2022-09-21T15:09:07.707Z,2.15
2022-09-21T15:11:42.247Z,2.25
2022-09-21T15:17:59.910Z,3.08
2022-09-21T15:20:29.567Z,3.20
2022-09-21T15:22:58.600Z,2.78
2022-09-21T15:25:29.863Z,2.47
2022-09-21T15:27:56.865Z,1.95
2022-09-21T15:30:27.090Z,3.83
2022-09-21T15:33:00.140Z,3.13
2022-09-21T15:35:32.616Z,2.85
2022-09-21T15:38:01.406Z,3.92
2022-09-21T15:40:35.552Z,4.38
2022-09-21T15:43:06.633Z,3.35
2022-09-21T15:45:54.832Z,5.65
2022-09-21T15:48:27.026Z,4.13
2022-09-21T15:50:59.199Z,5.57
2022-09-21T15:53:31.157Z,2.85
2022-09-21T15:56:01.679Z,3.13
2022-09-21T15:58:40.594Z,3.10
2022-09-21T16:01:14.227Z,3.25
2022-09-21T16:03:42.686Z,4.72
2022-09-21T16:06:21.827Z,3.78
2022-09-21T16:08:48.845Z,2.70
2022-09-21T16:11:17.120Z,7.32
2022-09-21T16:14:03.890Z,5.22
2022-09-21T16:16:31.108Z,3.83
2022-09-21T16:19:01.690Z,3.80
2022-09-21T16:21:34.766Z,2.92
2022-09-21T16:24:21.277Z,4.65
2022-09-21T16:27:02.536Z,3.35
2022-09-21T16:29:43.043Z,2.75
2022-09-21T16:32:19.263Z,3.78
2022-09-21T16:34:48.339Z,4.47
2022-09-21T16:37:28.201Z,5.40
2022-09-21T16:39:57.101Z,3.28
2022-09-21T16:42:28.249Z,3.95
2022-09-21T16:44:55.503Z,4.40
2022-09-21T16:47:28.064Z,3.78
2022-09-21T16:50:02.633Z,4.80
2022-09-21T16:52:30.715Z,3.72
2022-09-21T16:54:58.891Z,4.15
2022-09-21T16:57:26.885Z,3.95
2022-09-21T16:59:54.152Z,4.20
2022-09-21T17:02:21.135Z,4.47
2022-09-21T17:04:48.251Z,4.28
2022-09-21T17:07:17.067Z,4.65
2022-09-21T17:09:46.545Z,5.03
2022-09-21T17:12:17.739Z,4.63
2022-09-21T17:14:47.109Z,4.10
2022-09-21T17:17:24.240Z,4.40
2022-09-21T17:19:53.629Z,6.18
2022-09-21T17:22:21.946Z,4.35
2022-09-21T17:24:52.128Z,3.80
2022-09-21T17:27:29.300Z,3.88
2022-09-21T17:29:56.518Z,4.57
2022-09-21T17:32:24.825Z,7.10
2022-09-21T17:35:12.463Z,7.47
2022-09-21T17:37:39.353Z,4.85
2022-09-21T17:40:10.668Z,5.10
2022-09-21T17:42:46.673Z,4.40
2022-09-21T17:45:36.071Z,4.82
2022-09-21T17:48:03.446Z,9.13
2022-09-21T17:50:31.614Z,6.10
2022-09-21T17:53:17.537Z,4.47
2022-09-21T17:55:55.116Z,7.30
2022-09-21T17:58:34.834Z,5.78
2022-09-21T18:01:04.497Z,6.13
2022-09-21T18:03:36.047Z,4.70
2022-09-21T18:06:03.816Z,6.55
2022-09-21T18:08:34.103Z,9.73
2022-09-21T18:11:00.984Z,7.80
2022-09-21T18:13:42.564Z,13.25
2022-09-21T18:16:19.970Z,5.03
2022-09-21T18:18:57.832Z,4.55
2022-09-21T18:21:27.691Z,4.68
2022-09-21T18:24:14.928Z,6.25
2022-09-21T18:26:43.133Z,8.77
2022-09-21T18:29:40.438Z,5.43
2022-09-21T18:32:46.419Z,5.05
2022-09-21T18:35:20.734Z,5.57
2022-09-21T18:42:14.533Z,5.45
2022-09-21T18:44:53.391Z,8.07
2022-09-21T18:47:32.474Z,4.53
2022-09-21T18:50:51.818Z,5.28
2022-09-21T18:53:31.936Z,5.57
2022-09-21T18:55:59.822Z,5.88
2022-09-21T18:58:27.324Z,4.43
2022-09-21T19:00:54.443Z,4.22
2022-09-21T19:03:21.627Z,8.55
2022-09-21T19:06:10.647Z,5.75
2022-09-21T19:12:40.291Z,8.57
2022-09-21T19:15:27.494Z,5.47
2022-09-21T19:18:30.700Z,4.38
2022-09-21T19:21:38.774Z,4.18
2022-09-21T19:24:27.090Z,4.97
2022-09-21T19:27:12.277Z,7.22
2022-09-21T19:29:52.942Z,8.05
2022-09-21T19:32:31.538Z,5.10
2022-09-21T19:35:12.053Z,6.28
2022-09-21T19:37:39.623Z,5.25
2022-09-21T19:40:07.485Z,6.68
2022-09-21T19:42:59.595Z,4.82
2022-09-21T19:45:49.205Z,6.47
2022-09-21T19:48:18.893Z,4.63
2022-09-21T19:50:55.660Z,6.75
2022-09-21T19:53:42.295Z,4.95
2022-09-21T19:56:30.731Z,5.72
2022-09-21T19:59:16.282Z,5.85
2022-09-21T20:01:57.828Z,4.78
2022-09-21T20:04:36.878Z,4.70
2022-09-21T20:07:35.694Z,4.10
2022-09-21T20:10:08.191Z,5.60
2022-09-21T20:12:43.032Z,7.05
2022-09-21T20:15:19.328Z,4.00
2022-09-21T20:17:51.342Z,4.00
2022-09-21T20:20:25.533Z,4.95
2022-09-21T20:22:53.312Z,4.78
2022-09-21T20:25:27.879Z,5.60
2022-09-21T20:27:56.696Z,6.82
2022-09-21T20:30:32.958Z,6.40
2022-09-21T20:33:03.545Z,5.47
2022-09-21T20:35:31.078Z,6.03
2022-09-21T20:38:02.210Z,6.15
2022-09-21T20:40:30.195Z,5.15
2022-09-21T20:42:58.321Z,5.30
2022-09-21T20:45:26.530Z,5.18
2022-09-21T20:47:54.973Z,4.88
2022-09-21T20:50:25.497Z,4.28
2022-09-21T20:52:52.451Z,3.95
2022-09-21T20:55:20.442Z,3.05
2022-09-21T20:57:47.408Z,3.70
2022-09-21T21:00:16.658Z,5.20
2022-09-21T21:02:43.931Z,5.68
2022-09-21T21:05:11.375Z,4.45
2022-09-21T21:07:41.154Z,3.78
2022-09-21T21:10:08.338Z,8.18
2022-09-21T21:12:35.402Z,3.08
2022-09-21T21:15:02.276Z,3.80
2022-09-21T21:17:29.091Z,4.35
2022-09-21T21:19:55.935Z,6.95
2022-09-21T21:22:22.908Z,6.88
2022-09-21T21:24:49.725Z,3.53
2022-09-21T21:27:19.800Z,5.25
2022-09-21T21:29:51.508Z,4.60
2022-09-21T21:32:20.135Z,4.53
2022-09-21T21:34:49.613Z,3.88
2022-09-21T21:37:17.598Z,4.55
2022-09-21T21:39:44.607Z,6.38
2022-09-21T21:42:11.959Z,3.83
2022-09-21T21:44:39.426Z,3.95
2022-09-21T21:47:27.792Z,4.78
2022-09-21T21:49:53.588Z,3.75
2022-09-21T21:52:20.480Z,4.28
2022-09-21T21:54:47.346Z,4.70
2022-09-21T21:57:15.052Z,2.92
2022-09-21T21:59:43.607Z,4.20
2022-09-21T22:02:10.883Z,4.07
2022-09-21T22:04:38.854Z,4.97
2022-09-21T22:07:06.057Z,4.72
2022-09-21T22:09:33.017Z,2.95
2022-09-21T22:12:02.070Z,3.65
2022-09-21T22:14:28.991Z,3.35
2022-09-21T22:16:58.968Z,3.97
2022-09-21T22:19:26.185Z,3.65
2022-09-21T22:21:54.673Z,4.80
2022-09-21T22:24:22.349Z,4.43
2022-09-21T22:26:49.458Z,4.60
2022-09-21T22:29:17.389Z,4.97
2022-09-21T22:31:49.175Z,3.58
2022-09-21T22:34:16.517Z,4.88
2022-09-21T22:36:44.095Z,5.35
2022-09-21T22:39:12.232Z,4.20
2022-09-21T22:41:41.190Z,3.22
2022-09-21T22:44:08.766Z,3.92
2022-09-21T22:46:36.073Z,5.88
2022-09-21T22:49:03.228Z,4.43
2022-09-21T22:51:30.211Z,0.20
2022-09-21T22:53:57.988Z,0.40
2022-09-21T22:56:29.978Z,0.20
2022-09-21T22:58:58.900Z,0.20
2022-09-21T23:01:35.282Z,0.20
2022-09-21T23:04:05.773Z,0.20
2022-09-21T23:06:35.630Z,0.30
2022-09-21T23:09:05.159Z,0.50
2022-09-21T23:11:35.098Z,0.30
2022-09-21T23:14:03.366Z,0.52
2022-09-21T23:16:30.511Z,0.93
2022-09-21T23:18:58.152Z,0.20
2022-09-21T23:21:29.921Z,0.38
2022-09-21T23:24:01.696Z,0.30
2022-09-21T23:26:31.265Z,0.30
2022-09-21T23:29:00.694Z,0.43
2022-09-21T23:31:29.360Z,0.30
2022-09-21T23:33:59.557Z,0.30
2022-09-21T23:36:28.989Z,0.20
2022-09-21T23:38:55.951Z,0.20
2022-09-21T23:41:24.036Z,0.30
2022-09-21T23:43:51.284Z,0.40
2022-09-21T23:46:38.781Z,0.20
2022-09-21T23:49:06.290Z,0.20
2022-09-21T23:51:33.690Z,0.30
2022-09-21T23:54:01.184Z,0.22
2022-09-21T23:56:28.929Z,0.20
2022-09-21T23:58:56.090Z,0.30
